createdAt,value
2023-04-09T00:01:17.726Z,61.89
2023-04-09T00:06:20.165Z,62.52
2023-04-09T00:11:22.547Z,62.48
2023-04-09T00:16:25.061Z,62.98
2023-04-09T00:21:27.463Z,62.93
2023-04-09T00:26:29.929Z,63.70
2023-04-09T00:31:33.333Z,63.31
2023-04-09T00:36:43.399Z,63.47
2023-04-09T00:41:46.079Z,63.46
2023-04-09T00:46:48.521Z,63.81
2023-04-09T00:51:51.721Z,64.18
2023-04-09T00:56:56.417Z,63.91
2023-04-09T01:01:58.961Z,64.58
2023-04-09T01:07:17.432Z,64.60
2023-04-09T01:12:38.868Z,64.43
2023-04-09T01:17:47.643Z,64.66
2023-04-09T01:22:59.951Z,64.48
2023-04-09T01:28:19.345Z,65.24
2023-04-09T01:33:24.154Z,65.08
2023-04-09T01:38:28.072Z,65.49
2023-04-09T01:43:32.961Z,65.51
2023-04-09T01:48:36.014Z,65.86
2023-04-09T01:53:38.535Z,65.50
2023-04-09T01:58:41.580Z,65.66
2023-04-09T02:03:49.463Z,66.06
2023-04-09T02:08:54.195Z,66.09
2023-04-09T02:13:58.654Z,66.19
2023-04-09T02:19:21.058Z,66.61
2023-04-09T02:24:23.496Z,67.00
2023-04-09T02:29:25.966Z,66.71
2023-04-09T02:34:28.802Z,67.00
2023-04-09T02:39:31.255Z,66.30
2023-04-09T02:44:33.967Z,66.29
2023-04-09T02:49:36.861Z,64.90
2023-04-09T02:54:39.348Z,63.42
2023-04-09T02:59:42.044Z,61.94
2023-04-09T03:04:44.568Z,60.80
2023-04-09T03:09:47.034Z,59.38
2023-04-09T03:14:49.495Z,57.55
2023-04-09T03:19:52.762Z,56.20
2023-04-09T03:24:56.657Z,56.08
2023-04-09T03:29:59.242Z,55.37
2023-04-09T03:35:10.200Z,55.44
2023-04-09T03:40:14.486Z,53.96
2023-04-09T03:45:17.104Z,51.70
2023-04-09T03:50:22.872Z,48.87
2023-04-09T03:55:29.722Z,46.19
2023-04-09T04:00:34.893Z,43.89
2023-04-09T04:06:04.336Z,42.73
2023-04-09T04:11:18.330Z,41.02
2023-04-09T04:16:20.918Z,39.69
2023-04-09T04:21:27.634Z,38.57
2023-04-09T04:26:35.651Z,38.46
2023-04-09T04:31:38.754Z,38.63
2023-04-09T04:36:41.256Z,38.94
2023-04-09T04:41:44.093Z,37.63
2023-04-09T04:46:52.425Z,36.11
2023-04-09T04:51:54.985Z,35.65
2023-04-09T04:56:57.688Z,33.74
2023-04-09T05:02:20.606Z,32.81
2023-04-09T05:07:43.422Z,31.29
2023-04-09T05:12:46.002Z,31.12
2023-04-09T05:17:56.203Z,29.89
2023-04-09T05:22:58.724Z,28.91
2023-04-09T05:28:07.027Z,27.84
2023-04-09T05:33:11.203Z,26.71
2023-04-09T05:38:14.281Z,25.91
2023-04-09T05:43:19.469Z,25.43
2023-04-09T05:48:22.241Z,25.83
2023-04-09T05:53:27.233Z,25.74
2023-04-09T05:58:30.007Z,26.03
2023-04-09T06:03:34.055Z,25.08
2023-04-09T06:08:37.071Z,25.71
2023-04-09T06:13:40.498Z,24.79
2023-04-09T06:18:43.060Z,24.54
2023-04-09T06:23:45.925Z,23.89
2023-04-09T06:28:48.332Z,23.93
2023-04-09T06:33:51.135Z,23.86
2023-04-09T06:38:54.544Z,24.06
2023-04-09T06:43:56.982Z,23.61
2023-04-09T06:48:59.494Z,23.43
2023-04-09T06:54:01.984Z,23.57
2023-04-09T06:59:04.447Z,23.09
2023-04-09T07:04:06.982Z,23.13
2023-04-09T07:09:09.592Z,22.76
2023-04-09T07:14:12.196Z,22.63
2023-04-09T07:19:14.631Z,23.90
2023-04-09T07:24:17.055Z,23.17
2023-04-09T07:29:20.983Z,22.31
2023-04-09T07:34:23.439Z,22.58
2023-04-09T07:39:26.016Z,22.52
2023-04-09T07:44:28.474Z,22.90
2023-04-09T07:49:31.097Z,22.63
2023-04-09T07:54:34.355Z,22.50
2023-04-09T07:59:37.010Z,22.48
2023-04-09T08:04:39.664Z,22.09
2023-04-09T08:09:42.271Z,24.72
2023-04-09T08:14:44.798Z,23.85
2023-04-09T08:19:47.348Z,24.31
2023-04-09T08:24:53.571Z,24.67
2023-04-09T08:29:56.082Z,24.32
2023-04-09T08:34:58.575Z,24.58
2023-04-09T08:40:00.990Z,23.27
2023-04-09T08:45:06.253Z,22.57
2023-04-09T08:50:09.104Z,22.37
2023-04-09T08:55:12.512Z,22.72
2023-04-09T09:00:15.272Z,23.27
2023-04-09T09:05:17.833Z,22.96
2023-04-09T09:10:20.357Z,22.86
2023-04-09T09:15:27.900Z,22.90
2023-04-09T09:20:30.431Z,24.16
2023-04-09T09:25:38.851Z,23.34
2023-04-09T09:30:41.953Z,23.12
2023-04-09T09:35:52.846Z,25.95
2023-04-09T09:40:55.508Z,25.27
2023-04-09T09:45:58.815Z,25.75
2023-04-09T09:51:04.174Z,25.44
2023-04-09T09:56:07.850Z,26.17
2023-04-09T10:01:14.029Z,27.06
2023-04-09T10:06:16.765Z,26.19
2023-04-09T10:11:21.113Z,25.75
2023-04-09T10:16:24.394Z,26.77
2023-04-09T10:21:32.447Z,26.27
2023-04-09T10:26:35.956Z,25.32
2023-04-09T10:32:07.254Z,27.60
2023-04-09T10:37:21.520Z,28.07
2023-04-09T10:42:33.122Z,26.85
2023-04-09T10:47:40.753Z,27.24
2023-04-09T10:52:44.700Z,28.11
2023-04-09T10:57:47.123Z,27.65
2023-04-09T11:03:02.397Z,28.03
2023-04-09T11:08:13.268Z,27.30
2023-04-09T11:13:17.687Z,28.97
2023-04-09T11:18:22.385Z,29.58
2023-04-09T11:23:25.429Z,31.81
2023-04-09T11:28:27.884Z,32.90
2023-04-09T11:33:34.672Z,32.89
2023-04-09T11:38:38.634Z,33.72
2023-04-09T11:43:41.339Z,33.95
2023-04-09T11:48:43.824Z,34.39
2023-04-09T11:53:48.592Z,36.32
2023-04-09T11:58:51.610Z,35.71
2023-04-09T12:03:55.472Z,35.10
2023-04-09T12:08:59.539Z,35.21
2023-04-09T12:14:06.018Z,34.98
2023-04-09T12:19:09.812Z,35.35
2023-04-09T12:24:12.203Z,35.56
2023-04-09T12:29:16.231Z,35.84
2023-04-09T12:34:18.674Z,35.99
2023-04-09T12:39:21.314Z,36.61
2023-04-09T12:44:23.738Z,36.72
2023-04-09T12:49:35.751Z,36.81
2023-04-09T12:54:41.213Z,36.68
2023-04-09T12:59:46.158Z,36.74
2023-04-09T13:05:08.861Z,36.80
2023-04-09T13:10:34.379Z,36.64
2023-04-09T13:15:59.723Z,37.46
2023-04-09T13:21:22.271Z,37.59
2023-04-09T13:26:24.697Z,37.44
2023-04-09T13:31:41.317Z,37.85
2023-04-09T13:36:43.734Z,38.04
2023-04-09T13:41:46.402Z,38.07
2023-04-09T13:47:07.480Z,38.59
2023-04-09T13:52:29.691Z,39.45
2023-04-09T13:57:51.449Z,38.90
2023-04-09T14:02:54.015Z,38.77
2023-04-09T14:07:56.748Z,39.09
2023-04-09T14:12:59.393Z,38.96
2023-04-09T14:18:02.952Z,39.49
2023-04-09T14:23:05.519Z,39.28
2023-04-09T14:28:07.945Z,39.30
2023-04-09T14:33:10.752Z,39.70
2023-04-09T14:38:13.260Z,39.91
2023-04-09T14:43:15.778Z,40.21
2023-04-09T14:48:18.350Z,40.36
2023-04-09T14:53:21.091Z,40.56
2023-04-09T14:58:23.604Z,40.72
2023-04-09T15:03:26.270Z,40.98
2023-04-09T15:08:28.984Z,41.48
2023-04-09T15:13:31.628Z,40.98
2023-04-09T15:18:34.326Z,41.38
2023-04-09T15:23:37.172Z,41.43
2023-04-09T15:28:39.659Z,41.79
2023-04-09T15:33:45.911Z,41.92
2023-04-09T15:38:48.437Z,42.00
2023-04-09T15:43:52.103Z,42.32
2023-04-09T15:48:54.736Z,42.52
2023-04-09T15:53:57.720Z,42.21
2023-04-09T15:59:02.356Z,42.17
2023-04-09T16:04:05.191Z,42.11
2023-04-09T16:09:07.747Z,43.27
2023-04-09T16:14:10.321Z,43.41
2023-04-09T16:19:13.927Z,43.37
2023-04-09T16:24:16.620Z,43.43
2023-04-09T16:29:19.031Z,43.66
2023-04-09T16:34:21.467Z,43.85
2023-04-09T16:39:23.928Z,43.98
2023-04-09T16:44:26.499Z,44.76
2023-04-09T16:49:29.054Z,44.40
2023-04-09T16:54:31.481Z,44.65
2023-04-09T16:59:33.891Z,45.56
2023-04-09T17:04:38.368Z,45.19
2023-04-09T17:09:40.920Z,45.82
2023-04-09T17:14:44.769Z,46.05
2023-04-09T17:19:47.181Z,46.53
2023-04-09T17:24:49.905Z,46.64
2023-04-09T17:29:52.358Z,47.57
2023-04-09T17:34:54.938Z,48.19
2023-04-09T17:39:57.385Z,47.79
2023-04-09T17:45:00.024Z,47.87
2023-04-09T17:50:03.082Z,47.53
2023-04-09T17:55:12.730Z,48.47
2023-04-09T18:00:15.805Z,47.87
2023-04-09T18:05:23.291Z,48.11
2023-04-09T18:10:26.430Z,48.57
2023-04-09T18:15:28.914Z,49.50
2023-04-09T18:20:33.011Z,49.82
2023-04-09T18:25:35.446Z,50.01
2023-04-09T18:30:39.149Z,50.98
2023-04-09T18:35:41.556Z,50.57
2023-04-09T18:40:44.739Z,50.60
2023-04-09T18:45:47.424Z,50.80
2023-04-09T18:50:49.827Z,51.40
2023-04-09T18:55:52.422Z,50.85
2023-04-09T19:00:54.993Z,50.54
2023-04-09T19:05:57.853Z,50.64
2023-04-09T19:11:01.515Z,50.87
2023-04-09T19:16:04.883Z,51.61
2023-04-09T19:21:08.657Z,51.28
2023-04-09T19:26:11.148Z,51.38
2023-04-09T19:31:14.783Z,51.93
2023-04-09T19:36:19.634Z,52.37
2023-04-09T19:41:22.107Z,52.05
2023-04-09T19:46:24.606Z,51.91
2023-04-09T19:51:27.676Z,52.09
2023-04-09T19:56:30.314Z,52.40
2023-04-09T20:01:32.991Z,52.21
2023-04-09T20:06:35.885Z,52.80
2023-04-09T20:11:39.400Z,52.35
2023-04-09T20:16:41.880Z,52.60
2023-04-09T20:21:44.413Z,52.76
2023-04-09T20:26:47.930Z,53.05
2023-04-09T20:31:50.379Z,53.21
2023-04-09T20:36:56.975Z,52.98
2023-04-09T20:41:59.455Z,53.77
2023-04-09T20:47:03.464Z,53.55
2023-04-09T20:52:07.487Z,53.08
2023-04-09T20:57:13.730Z,53.84
2023-04-09T21:02:17.864Z,53.81
2023-04-09T21:07:20.658Z,54.34
2023-04-09T21:12:23.120Z,54.51
2023-04-09T21:17:25.675Z,54.65
2023-04-09T21:22:28.183Z,55.10
2023-04-09T21:27:30.762Z,54.89
2023-04-09T21:32:33.210Z,54.96
2023-04-09T21:37:37.798Z,54.85
2023-04-09T21:42:40.174Z,55.26
2023-04-09T21:47:42.622Z,55.04
2023-04-09T21:52:46.204Z,54.96
2023-04-09T21:57:48.653Z,54.88
2023-04-09T22:02:51.310Z,55.10
2023-04-09T22:07:55.769Z,55.41
2023-04-09T22:12:58.189Z,55.70
2023-04-09T22:18:00.669Z,55.86
2023-04-09T22:23:03.368Z,55.62
2023-04-09T22:28:06.443Z,56.06
2023-04-09T22:33:08.921Z,56.01
2023-04-09T22:38:11.722Z,55.88
2023-04-09T22:43:14.980Z,56.22
2023-04-09T22:48:17.404Z,56.07
2023-04-09T22:53:19.835Z,56.42
2023-04-09T22:58:22.310Z,56.77
2023-04-09T23:03:24.967Z,56.43
2023-04-09T23:08:27.678Z,56.53
2023-04-09T23:13:30.128Z,56.75
2023-04-09T23:18:35.229Z,57.27
2023-04-09T23:23:38.829Z,57.07
2023-04-09T23:28:42.517Z,57.02
2023-04-09T23:33:44.927Z,57.38
2023-04-09T23:38:47.688Z,57.58
2023-04-09T23:43:51.553Z,57.08
2023-04-09T23:48:54.196Z,57.15
2023-04-09T23:53:56.933Z,56.51
2023-04-09T23:58:59.468Z,56.61
